Time;durP1;ratioP1;P1;durP2;ratioP2;P2;SDS_P1;SDS_P2;PMS_P1;PMS_P2;Temp;Humidity;BMP_temperature;BMP_pressure;BME280_temperature;BME280_humidity;BME280_pressure;Samples;Min_cycle;Max_cycle;Signal;HPM_P1;HPM_P2
2021/12/30 00:01:20;;;;;;;14.52;10.73;;;;;;;3.09;100.00;90182.00;4991631;28;20039;-66
2021/12/30 00:03:47;;;;;;;12.73;8.32;;;;;;;3.17;100.00;90191.91;4991027;28;20050;-66
2021/12/30 00:06:14;;;;;;;12.10;9.07;;;;;;;3.18;100.00;90187.44;4991344;28;20039;-66
2021/12/30 00:08:39;;;;;;;14.35;9.63;;;;;;;3.13;100.00;90179.59;4991409;28;20054;-66
2021/12/30 00:11:06;;;;;;;13.43;8.90;;;;;;;3.07;100.00;90192.00;4991497;28;20042;-66
2021/12/30 00:13:32;;;;;;;14.55;10.13;;;;;;;3.03;100.00;90175.25;4991315;28;20496;-66
2021/12/30 00:15:58;;;;;;;17.65;11.27;;;;;;;2.97;100.00;90184.25;4991484;28;20054;-66
2021/12/30 00:18:24;;;;;;;17.35;12.20;;;;;;;2.97;100.00;90187.66;4991462;28;20103;-66
2021/12/30 00:20:50;;;;;;;18.90;12.73;;;;;;;3.02;100.00;90199.97;4992814;28;20100;-66
2021/12/30 00:23:15;;;;;;;17.15;12.48;;;;;;;3.10;100.00;90188.03;4994986;28;20535;-66
2021/12/30 00:25:42;;;;;;;19.08;12.77;;;;;;;3.19;100.00;90195.03;4994981;28;20042;-66
2021/12/30 00:28:18;;;;;;;20.60;14.32;;;;;;;3.36;100.00;90196.41;4995049;28;20564;-66
2021/12/30 00:30:44;;;;;;;18.35;13.10;;;;;;;3.33;100.00;90189.84;4994909;28;20042;-67
2021/12/30 00:33:10;;;;;;;18.15;10.93;;;;;;;3.14;100.00;90187.19;4994732;28;20078;-66
2021/12/30 00:35:36;;;;;;;14.13;9.07;;;;;;;3.05;100.00;90188.88;4994913;28;20524;-66
2021/12/30 00:38:04;;;;;;;14.40;8.57;;;;;;;2.98;100.00;90189.22;4994813;28;20488;-66
2021/12/30 00:40:30;;;;;;;12.85;9.60;;;;;;;3.01;100.00;90182.63;4994764;28;20035;-66
2021/12/30 00:42:56;;;;;;;8.80;6.47;;;;;;;2.81;100.00;90188.09;4994627;28;20045;-66
2021/12/30 00:45:22;;;;;;;9.00;6.20;;;;;;;2.65;100.00;90190.88;4994561;28;20035;-66
2021/12/30 00:47:47;;;;;;;8.27;6.75;;;;;;;2.68;100.00;90197.44;4994577;28;20523;-66
2021/12/30 00:50:13;;;;;;;8.32;5.97;;;;;;;2.76;100.00;90191.56;4994568;28;20124;-66
2021/12/30 00:52:39;;;;;;;8.93;5.90;;;;;;;2.73;100.00;90191.34;4993203;28;20049;-66
2021/12/30 00:55:05;;;;;;;5.85;4.38;;;;;;;2.76;100.00;90193.41;4994379;28;20042;-66
2021/12/30 00:57:31;;;;;;;6.10;4.85;;;;;;;2.75;100.00;90194.47;4994383;28;20046;-66
2021/12/30 00:59:56;;;;;;;9.07;6.15;;;;;;;2.82;100.00;90203.56;4994366;28;20084;-66
2021/12/30 01:02:22;;;;;;;10.40;6.72;;;;;;;2.95;100.00;90194.25;4994358;28;20409;-66
2021/12/30 01:04:47;;;;;;;10.35;5.95;;;;;;;2.95;100.00;90189.78;4994209;28;20050;-66
2021/12/30 01:07:13;;;;;;;8.63;5.88;;;;;;;3.04;100.00;90189.94;4994153;28;20046;-66
2021/12/30 01:09:39;;;;;;;7.47;5.35;;;;;;;3.04;100.00;90186.53;4994245;28;20089;-66
2021/12/30 01:12:06;;;;;;;7.70;5.10;;;;;;;2.98;100.00;90188.44;5166721;23;20053;-64
2021/12/30 01:14:35;;;;;;;6.38;5.00;;;;;;;3.06;100.00;90189.66;5033541;28;20045;-65
2021/12/30 01:17:13;;;;;;;5.35;4.18;;;;;;;3.00;100.00;90200.25;5033400;28;20487;-64
2021/12/30 01:19:45;;;;;;;6.45;5.07;;;;;;;3.00;100.00;90194.22;5033453;28;20037;-65
2021/12/30 01:22:17;;;;;;;7.03;5.25;;;;;;;2.92;100.00;90185.09;5033229;28;20113;-65
2021/12/30 01:24:44;;;;;;;7.63;5.37;;;;;;;2.91;100.00;90195.88;5033409;28;20124;-65
2021/12/30 01:27:10;;;;;;;7.30;5.03;;;;;;;3.01;100.00;90193.16;5033824;28;20361;-64
2021/12/30 01:29:36;;;;;;;8.27;5.20;;;;;;;3.06;100.00;90185.19;5033259;28;20104;-64
2021/12/30 01:32:02;;;;;;;6.50;5.38;;;;;;;3.04;100.00;90192.56;5032684;28;20116;-64
2021/12/30 01:34:28;;;;;;;6.43;5.13;;;;;;;3.00;100.00;90191.59;5033165;28;20025;-65
2021/12/30 01:36:55;;;;;;;8.48;6.35;;;;;;;3.14;100.00;90197.69;5033187;28;20123;-65
2021/12/30 01:39:22;;;;;;;9.23;5.85;;;;;;;3.07;100.00;90197.25;5033185;28;20101;-65
2021/12/30 01:41:50;;;;;;;7.32;5.10;;;;;;;3.11;100.00;90194.84;5032980;28;20415;-65
2021/12/30 01:44:15;;;;;;;7.68;5.65;;;;;;;3.11;100.00;90203.50;5032966;28;20452;-65
2021/12/30 01:46:43;;;;;;;8.50;6.30;;;;;;;3.02;100.00;90199.97;5032847;28;20088;-65
2021/12/30 01:49:09;;;;;;;8.30;5.90;;;;;;;3.07;100.00;90204.38;5048538;28;20577;-65
2021/12/30 01:51:35;;;;;;;7.93;6.00;;;;;;;3.07;100.00;90207.00;5032706;28;20570;-65
2021/12/30 01:54:02;;;;;;;6.80;4.90;;;;;;;2.98;100.00;90209.44;5032709;28;20408;-65
2021/12/30 01:56:28;;;;;;;6.40;5.13;;;;;;;2.93;100.00;90202.41;5032702;28;20111;-65
2021/12/30 01:58:55;;;;;;;6.43;5.40;;;;;;;2.99;100.00;90200.50;5032702;28;20076;-65
2021/12/30 02:01:20;;;;;;;9.15;5.88;;;;;;;3.00;100.00;90215.22;5032510;28;20033;-66
2021/12/30 02:03:46;;;;;;;7.15;5.78;;;;;;;2.85;100.00;90207.50;5031347;28;20028;-65
2021/12/30 02:06:12;;;;;;;6.90;4.95;;;;;;;2.79;100.00;90206.75;5032456;28;20111;-65
2021/12/30 02:08:37;;;;;;;7.10;5.80;;;;;;;2.72;100.00;90216.06;5047759;28;20029;-65
2021/12/30 02:11:03;;;;;;;7.57;4.95;;;;;;;2.68;100.00;90219.25;5032335;28;20037;-65
2021/12/30 02:13:29;;;;;;;6.00;4.93;;;;;;;2.70;100.00;90221.59;5032183;28;20049;-65
2021/12/30 02:16:00;;;;;;;5.90;4.72;;;;;;;2.63;100.00;90208.78;5032368;28;20032;-65
2021/12/30 02:18:26;;;;;;;5.70;5.00;;;;;;;2.65;100.00;90217.16;5032328;28;20451;-65
2021/12/30 02:20:55;;;;;;;4.38;3.97;;;;;;;2.63;100.00;90216.66;5032279;28;20109;-65
2021/12/30 02:23:31;;;;;;;6.20;4.97;;;;;;;2.59;100.00;90218.28;5032057;28;20087;-65
2021/12/30 02:26:00;;;;;;;6.63;4.85;;;;;;;2.60;100.00;90217.22;5032031;28;20052;-65
2021/12/30 02:28:28;;;;;;;6.32;5.10;;;;;;;2.65;100.00;90224.25;5032060;28;20030;-65
2021/12/30 02:30:56;;;;;;;8.23;5.72;;;;;;;2.66;100.00;90210.84;5031976;28;20148;-65
2021/12/30 02:33:23;;;;;;;6.40;5.00;;;;;;;2.59;100.00;90220.91;5031974;28;20483;-65
2021/12/30 02:35:49;;;;;;;6.60;5.53;;;;;;;2.64;100.00;90228.72;5032013;28;20033;-65
2021/12/30 02:38:16;;;;;;;5.38;4.63;;;;;;;2.57;100.00;90225.66;5031981;28;20030;-65
2021/12/30 02:40:45;;;;;;;7.25;6.00;;;;;;;2.63;100.00;90235.03;5031925;28;20033;-65
2021/12/30 02:43:14;;;;;;;6.50;5.30;;;;;;;2.61;100.00;90228.50;5030990;28;20414;-65
2021/12/30 02:45:41;;;;;;;7.10;5.53;;;;;;;2.62;100.00;90243.19;5031788;28;20033;-65
2021/12/30 02:48:14;;;;;;;7.78;5.93;;;;;;;2.58;100.00;90244.81;5031812;28;20041;-65
2021/12/30 02:50:40;;;;;;;8.60;6.07;;;;;;;2.64;100.00;90247.09;5031732;28;20029;-65
2021/12/30 02:53:06;;;;;;;7.25;5.88;;;;;;;2.63;100.00;90253.41;5031592;28;20068;-65
2021/12/30 02:55:31;;;;;;;9.50;7.25;;;;;;;2.69;100.00;90251.53;5031561;28;20053;-65
2021/12/30 02:57:57;;;;;;;16.08;11.82;;;;;;;2.76;100.00;90245.94;5031613;28;20034;-65
2021/12/30 03:00:22;;;;;;;17.40;11.48;;;;;;;2.81;100.00;90246.66;5031593;28;20092;-65
2021/12/30 03:02:48;;;;;;;9.38;7.55;;;;;;;2.73;100.00;90244.66;5031780;28;20112;-66
2021/12/30 03:05:18;;;;;;;22.13;14.13;;;;;;;2.95;100.00;90242.31;5031447;28;20087;-65
2021/12/30 03:07:44;;;;;;;16.23;10.55;;;;;;;3.07;100.00;90249.81;5031521;28;20033;-65
2021/12/30 03:10:18;;;;;;;11.45;8.98;;;;;;;2.90;100.00;90249.47;5031477;28;20057;-66
2021/12/30 03:12:45;;;;;;;10.43;7.47;;;;;;;2.81;100.00;90256.38;5030867;28;20511;-65
2021/12/30 03:15:13;;;;;;;7.60;5.85;;;;;;;2.75;100.00;90253.03;5031378;28;20056;-65
2021/12/30 03:17:39;;;;;;;5.25;4.25;;;;;;;2.63;100.00;90260.50;5031337;28;20095;-65
2021/12/30 03:20:09;;;;;;;4.25;3.70;;;;;;;2.58;100.00;90263.97;5031388;28;20025;-65
2021/12/30 03:22:36;;;;;;;4.32;3.78;;;;;;;2.52;100.00;90266.88;5031276;28;20068;-65
2021/12/30 03:25:04;;;;;;;4.75;3.95;;;;;;;2.52;100.00;90270.31;5031141;28;20415;-65
2021/12/30 03:27:29;;;;;;;5.05;4.22;;;;;;;2.52;100.00;90275.56;5031257;28;20065;-65
2021/12/30 03:29:55;;;;;;;6.32;5.20;;;;;;;2.53;100.00;90274.53;5031282;28;20522;-65
2021/12/30 03:32:20;;;;;;;6.63;5.10;;;;;;;2.54;100.00;90283.19;5031186;28;20061;-66
2021/12/30 03:34:46;;;;;;;6.45;5.38;;;;;;;2.57;100.00;90283.41;5031242;28;20033;-65
2021/12/30 03:37:11;;;;;;;6.75;5.43;;;;;;;2.52;100.00;90278.19;5031113;28;20036;-65
2021/12/30 03:39:38;;;;;;;6.70;5.32;;;;;;;2.54;100.00;90283.19;5031141;28;20057;-65
2021/12/30 03:42:03;;;;;;;6.47;5.15;;;;;;;2.51;100.00;90287.13;5031073;28;20116;-65
2021/12/30 03:44:29;;;;;;;6.43;5.30;;;;;;;2.54;100.00;90297.09;5029818;28;20575;-66
2021/12/30 03:46:55;;;;;;;7.63;4.97;;;;;;;2.55;100.00;90298.66;5031022;28;20116;-66
2021/12/30 03:49:20;;;;;;;6.32;5.57;;;;;;;2.53;100.00;90295.53;5031064;28;20108;-66
2021/12/30 03:51:46;;;;;;;7.53;5.40;;;;;;;2.56;100.00;90300.22;5031187;28;20407;-66
2021/12/30 03:54:11;;;;;;;6.35;4.80;;;;;;;2.57;100.00;90309.66;5031631;28;20036;-66
2021/12/30 03:56:37;;;;;;;4.75;4.22;;;;;;;2.55;100.00;90303.91;5034960;28;20565;-66
2021/12/30 03:59:03;;;;;;;4.45;4.05;;;;;;;2.49;100.00;90307.59;5034925;28;20036;-66
2021/12/30 04:01:29;;;;;;;6.22;4.65;;;;;;;2.44;100.00;90304.25;5034822;28;20037;-66
2021/12/30 04:03:57;;;;;;;4.65;3.65;;;;;;;2.39;100.00;90299.84;5034909;28;20032;-66
2021/12/30 04:06:23;;;;;;;4.05;3.65;;;;;;;2.48;100.00;90321.00;5034770;28;20026;-66
2021/12/30 04:08:50;;;;;;;5.95;3.63;;;;;;;2.49;100.00;90320.72;5034744;28;20041;-66
2021/12/30 04:11:15;;;;;;;4.70;4.25;;;;;;;2.49;100.00;90318.09;5034421;28;20033;-66
2021/12/30 04:13:41;;;;;;;4.30;3.90;;;;;;;2.52;100.00;90338.56;5034640;28;20030;-66
2021/12/30 04:16:07;;;;;;;6.03;4.18;;;;;;;2.49;100.00;90339.09;5034636;28;20037;-66
2021/12/30 04:18:33;;;;;;;5.43;4.28;;;;;;;2.44;100.00;90327.88;5034522;28;20091;-65
2021/12/30 04:20:59;;;;;;;4.15;3.42;;;;;;;2.47;100.00;90338.59;5034440;28;20034;-66
2021/12/30 04:23:25;;;;;;;3.90;3.40;;;;;;;2.46;100.00;90344.13;5034441;28;20029;-66
2021/12/30 04:25:51;;;;;;;3.85;3.50;;;;;;;2.46;100.00;90355.41;5034376;28;20100;-66
2021/12/30 04:28:16;;;;;;;3.83;3.42;;;;;;;2.46;100.00;90352.78;5034347;28;20034;-66
2021/12/30 04:30:42;;;;;;;4.60;3.72;;;;;;;2.42;100.00;90353.63;5034314;28;20465;-65
2021/12/30 04:33:08;;;;;;;8.00;4.93;;;;;;;2.42;100.00;90343.91;5034222;28;20076;-66
2021/12/30 04:35:34;;;;;;;14.75;10.75;;;;;;;2.45;100.00;90350.44;5032986;28;20064;-65
2021/12/30 04:37:59;;;;;;;10.38;6.80;;;;;;;2.47;100.00;90356.19;5034193;28;20137;-66
2021/12/30 04:40:27;;;;;;;9.10;6.50;;;;;;;2.53;100.00;90361.16;5032894;28;20551;-65
2021/12/30 04:42:53;;;;;;;11.13;7.53;;;;;;;2.57;100.00;90369.25;5033981;28;20021;-66
2021/12/30 04:45:19;;;;;;;16.55;10.98;;;;;;;2.60;100.00;90373.97;5034006;28;20041;-66
2021/12/30 04:47:44;;;;;;;14.38;9.45;;;;;;;2.66;100.00;90375.47;5033966;28;20022;-66
2021/12/30 04:50:12;;;;;;;10.90;7.90;;;;;;;2.66;100.00;90376.25;5033939;28;20112;-66
2021/12/30 04:52:38;;;;;;;10.77;7.60;;;;;;;2.67;100.00;90380.44;5033849;28;20029;-65
2021/12/30 04:55:05;;;;;;;10.55;7.28;;;;;;;2.78;100.00;90373.28;5033861;28;20037;-66
2021/12/30 04:57:30;;;;;;;10.65;7.78;;;;;;;2.82;100.00;90384.03;5033862;28;20037;-66
2021/12/30 04:59:56;;;;;;;11.68;8.10;;;;;;;2.82;100.00;90384.03;5033835;28;20106;-66
2021/12/30 05:02:25;;;;;;;11.13;8.07;;;;;;;2.90;100.00;90399.22;5033722;28;20512;-66
2021/12/30 05:04:51;;;;;;;15.05;10.15;;;;;;;2.91;100.00;90382.38;5033724;28;20065;-66
2021/12/30 05:07:16;;;;;;;17.95;10.98;;;;;;;2.84;100.00;90393.22;5032755;28;20458;-66
2021/12/30 05:09:42;;;;;;;22.95;13.38;;;;;;;2.77;100.00;90397.19;5033630;28;20033;-66
2021/12/30 05:12:07;;;;;;;15.38;10.02;;;;;;;2.76;100.00;90406.16;5033271;28;20499;-66
2021/12/30 05:14:33;;;;;;;18.50;12.88;;;;;;;2.76;100.00;90416.66;5033509;28;20033;-66
2021/12/30 05:17:03;;;;;;;14.73;11.88;;;;;;;2.77;100.00;90411.13;5033476;28;20042;-65
2021/12/30 05:19:30;;;;;;;28.67;21.88;;;;;;;2.78;100.00;90422.41;5033735;28;20029;-66
2021/12/30 05:21:56;;;;;;;18.05;13.63;;;;;;;2.74;100.00;90419.56;5033311;28;20035;-66
2021/12/30 05:24:22;;;;;;;28.75;17.88;;;;;;;2.78;100.00;90425.03;5033055;28;20029;-66
2021/12/30 05:26:47;;;;;;;39.13;23.02;;;;;;;2.72;100.00;90410.38;5033198;28;20022;-65
2021/12/30 05:29:15;;;;;;;28.67;17.98;;;;;;;2.82;100.00;90418.16;5033163;28;20045;-66
2021/12/30 05:31:41;;;;;;;102.78;55.35;;;;;;;2.85;100.00;90415.00;5033120;28;20026;-66
2021/12/30 05:34:06;;;;;;;98.57;60.75;;;;;;;2.80;100.00;90415.81;5033121;28;20056;-66
2021/12/30 05:36:32;;;;;;;87.90;52.20;;;;;;;2.72;100.00;90428.75;5033109;28;20025;-66
2021/12/30 05:38:57;;;;;;;40.10;24.35;;;;;;;2.67;100.00;90426.94;5033009;28;20033;-66
2021/12/30 05:41:25;;;;;;;64.15;36.20;;;;;;;2.66;100.00;90435.88;5032886;28;20087;-66
2021/12/30 05:43:51;;;;;;;39.63;23.02;;;;;;;2.64;100.00;90441.41;5032960;28;20029;-66
2021/12/30 05:46:17;;;;;;;32.42;18.85;;;;;;;2.57;100.00;90440.16;5032893;28;20076;-66
2021/12/30 05:48:43;;;;;;;30.73;20.17;;;;;;;2.60;100.00;90440.38;5031640;28;20033;-66
2021/12/30 05:51:08;;;;;;;28.50;19.10;;;;;;;2.59;100.00;90448.53;5032709;28;20514;-66
2021/12/30 05:53:34;;;;;;;25.90;17.13;;;;;;;2.63;100.00;90454.81;5032792;28;20041;-66
2021/12/30 05:55:59;;;;;;;28.75;18.27;;;;;;;2.72;100.00;90465.53;5032726;28;20029;-67
2021/12/30 05:58:25;;;;;;;28.27;18.35;;;;;;;2.75;100.00;90462.34;5032874;28;20411;-66
2021/12/30 06:00:51;;;;;;;27.60;17.52;;;;;;;2.84;100.00;90471.22;5032912;28;20038;-66
2021/12/30 06:03:19;;;;;;;32.65;19.23;;;;;;;2.93;100.00;90472.22;5033095;28;20037;-65
2021/12/30 06:05:46;;;;;;;56.38;33.22;;;;;;;2.95;100.00;90467.47;5032507;28;20087;-66
2021/12/30 06:08:12;;;;;;;50.90;29.05;;;;;;;2.92;100.00;90479.31;5032539;28;20032;-66
2021/12/30 06:10:39;;;;;;;19.65;11.25;;;;;;;2.67;100.00;90477.63;5032361;28;20026;-66
2021/12/30 06:13:05;;;;;;;18.98;12.45;;;;;;;2.46;100.00;90476.16;5032144;28;20056;-66
2021/12/30 06:15:30;;;;;;;21.70;15.77;;;;;;;2.41;100.00;90484.06;5032368;28;20147;-66
2021/12/30 06:17:56;;;;;;;22.95;18.00;;;;;;;2.37;100.00;90496.19;5032287;28;20037;-66
2021/12/30 06:20:21;;;;;;;23.92;15.73;;;;;;;2.16;100.00;90492.84;5030839;28;20021;-66
2021/12/30 06:22:48;;;;;;;24.52;15.90;;;;;;;2.02;100.00;90503.09;5032054;28;20404;-66
2021/12/30 06:25:14;;;;;;;18.33;10.20;;;;;;;1.87;100.00;90508.41;5032050;28;20033;-66
2021/12/30 06:27:40;;;;;;;14.52;10.40;;;;;;;1.87;100.00;90515.47;5032101;28;20133;-66
2021/12/30 06:30:07;;;;;;;16.48;11.10;;;;;;;1.92;100.00;90521.50;5032078;28;20025;-66
2021/12/30 06:32:33;;;;;;;15.45;10.00;;;;;;;1.82;100.00;90529.41;5031962;28;20111;-66
2021/12/30 06:34:59;;;;;;;27.38;19.73;;;;;;;1.85;100.00;90534.09;5031960;28;20495;-65
2021/12/30 06:37:24;;;;;;;10.45;9.07;;;;;;;1.87;100.00;90541.69;5031896;28;20068;-65
2021/12/30 06:39:50;;;;;;;14.68;10.40;;;;;;;1.90;100.00;90541.97;5030514;28;20086;-65
2021/12/30 06:42:15;;;;;;;18.85;12.32;;;;;;;1.90;100.00;90541.97;5031794;28;20032;-65
2021/12/30 06:44:41;;;;;;;54.35;27.98;;;;;;;1.98;100.00;90554.53;5030565;28;20033;-65
2021/12/30 06:47:06;;;;;;;15.43;9.02;;;;;;;1.94;100.00;90558.75;5031693;28;20049;-65
2021/12/30 06:49:37;;;;;;;8.02;6.00;;;;;;;1.91;100.00;90561.91;5031766;28;20147;-65
2021/12/30 06:52:08;;;;;;;8.32;5.38;;;;;;;1.70;100.00;90563.75;5031588;28;20025;-65
2021/12/30 06:54:34;;;;;;;7.75;6.25;;;;;;;1.66;100.00;90567.19;5031686;28;20033;-65
2021/12/30 06:57:02;;;;;;;35.67;14.95;;;;;;;1.71;100.00;90572.41;5031621;28;20530;-65
2021/12/30 06:59:28;;;;;;;48.80;22.52;;;;;;;1.68;100.00;90573.72;5008708;28;20032;-65
2021/12/30 07:01:57;;;;;;;19.05;11.65;;;;;;;1.76;100.00;90569.78;5010522;28;20030;-65
2021/12/30 07:04:26;;;;;;;24.25;14.43;;;;;;;1.82;100.00;90581.06;5011474;28;20030;-65
2021/12/30 07:06:53;;;;;;;32.97;21.90;;;;;;;1.82;100.00;90581.84;5011291;28;20026;-66
2021/12/30 07:09:19;;;;;;;51.88;29.55;;;;;;;1.89;100.00;90590.22;5011301;28;20084;-66
2021/12/30 07:11:48;;;;;;;26.38;17.70;;;;;;;1.78;100.00;90599.94;5011072;28;20044;-65
2021/12/30 07:14:18;;;;;;;25.38;17.27;;;;;;;1.63;100.00;90589.47;5010100;28;20040;-65
2021/12/30 07:16:44;;;;;;;41.63;27.73;;;;;;;1.65;100.00;90603.09;5010913;28;20041;-65
2021/12/30 07:19:10;;;;;;;60.58;37.58;;;;;;;1.61;100.00;90606.50;5011238;28;20508;-66
2021/12/30 07:21:35;;;;;;;60.28;39.78;;;;;;;1.62;100.00;90613.31;5011271;28;20117;-66
2021/12/30 07:24:01;;;;;;;70.65;46.70;;;;;;;1.49;100.00;90618.03;5011157;28;20026;-66
2021/12/30 07:26:26;;;;;;;54.33;36.78;;;;;;;1.46;100.00;90609.91;5011059;28;20058;-65
2021/12/30 07:28:52;;;;;;;67.68;42.13;;;;;;;1.69;100.00;90626.94;5010728;28;20037;-65
2021/12/30 07:31:17;;;;;;;86.93;54.45;;;;;;;1.67;100.00;90629.84;5010662;28;20527;-65
2021/12/30 07:33:43;;;;;;;72.28;49.05;;;;;;;1.72;100.00;90634.28;5011152;28;20030;-65
2021/12/30 07:36:08;;;;;;;68.00;46.88;;;;;;;1.66;100.00;90632.72;5011056;28;20037;-66
2021/12/30 07:38:34;;;;;;;57.20;37.33;;;;;;;1.88;100.00;90633.22;5011105;28;20034;-66
2021/12/30 07:41:00;;;;;;;45.30;30.33;;;;;;;1.90;100.00;90641.66;5010852;28;20030;-66
2021/12/30 07:43:25;;;;;;;20.50;12.35;;;;;;;1.66;100.00;90643.22;5011073;28;20065;-67
2021/12/30 07:45:51;;;;;;;23.48;16.02;;;;;;;1.75;100.00;90655.53;5010484;28;20404;-67
2021/12/30 07:48:18;;;;;;;42.92;26.08;;;;;;;1.75;100.00;90650.31;5011165;28;20065;-67
2021/12/30 07:50:44;;;;;;;21.45;14.25;;;;;;;1.63;100.00;90652.38;5010917;28;20080;-67
2021/12/30 07:53:10;;;;;;;14.90;11.10;;;;;;;1.61;100.00;90651.06;5010875;28;20069;-65
2021/12/30 07:55:35;;;;;;;21.00;11.60;;;;;;;1.63;100.00;90660.25;5011072;28;20104;-66
2021/12/30 07:58:01;;;;;;;15.45;9.85;;;;;;;1.69;100.00;90666.28;5011026;28;20034;-66
2021/12/30 08:00:28;;;;;;;37.90;23.95;;;;;;;1.79;100.00;90674.94;5010667;28;20022;-67
2021/12/30 08:02:53;;;;;;;78.68;43.38;;;;;;;2.01;100.00;90679.91;5011001;28;20037;-65
2021/12/30 08:05:20;;;;;;;86.50;48.38;;;;;;;2.40;100.00;90690.66;5010792;28;20044;-73
2021/12/30 08:07:46;;;;;;;41.50;14.75;;;;;;;2.34;100.00;90683.03;5010907;28;20487;-73
2021/12/30 08:10:18;;;;;;;86.78;13.43;;;;;;;2.55;100.00;90689.06;5026428;28;20034;-73
2021/12/30 08:12:45;;;;;;;15.30;9.50;;;;;;;2.65;100.00;90684.56;5010604;28;20121;-72
2021/12/30 08:15:12;;;;;;;11.43;7.05;;;;;;;2.35;100.00;90676.75;5010717;28;20034;-70
2021/12/30 08:17:39;;;;;;;13.23;7.90;;;;;;;2.20;100.00;90676.75;5010829;28;20033;-70
2021/12/30 08:20:07;;;;;;;230.25;127.53;;;;;;;2.45;100.00;90689.06;5010844;28;20108;-70
2021/12/30 08:22:33;;;;;;;23.52;15.30;;;;;;;2.23;100.00;90692.00;5010024;28;20034;-73
2021/12/30 08:24:58;;;;;;;24.17;15.73;;;;;;;2.05;100.00;90690.66;5010745;28;20034;-70
2021/12/30 08:27:24;;;;;;;27.17;18.17;;;;;;;2.04;100.00;90694.34;5010307;28;20113;-69
2021/12/30 08:29:50;;;;;;;21.00;15.07;;;;;;;2.03;100.00;90695.41;5011204;28;20030;-70
2021/12/30 08:32:16;;;;;;;27.48;15.65;;;;;;;1.85;100.00;90699.31;5010538;28;20033;-71
2021/12/30 08:34:43;;;;;;;22.75;14.60;;;;;;;1.77;100.00;90687.53;5010555;28;20026;-70
2021/12/30 08:37:10;;;;;;;18.45;11.02;;;;;;;1.87;100.00;90697.22;5014516;28;20101;-70
2021/12/30 08:39:36;;;;;;;31.05;13.82;;;;;;;1.94;100.00;90710.88;5016528;28;20515;-70
2021/12/30 08:42:03;;;;;;;13.60;9.07;;;;;;;1.87;100.00;90705.09;5011980;28;20048;-70
2021/12/30 08:44:29;;;;;;;58.30;31.58;;;;;;;1.96;100.00;90708.78;5013373;28;20165;-72
2021/12/30 08:46:55;;;;;;;43.35;29.70;;;;;;;2.19;100.00;90704.06;5013965;28;20527;-71
2021/12/30 08:49:22;;;;;;;18.63;12.25;;;;;;;2.26;100.00;90708.00;5013924;28;20030;-67
2021/12/30 08:51:47;;;;;;;5.97;4.85;;;;;;;2.05;100.00;90712.47;5013502;28;20038;-67
2021/12/30 08:54:13;;;;;;;9.00;6.38;;;;;;;1.86;100.00;90703.53;5013726;28;20145;-68
2021/12/30 08:56:39;;;;;;;29.92;19.52;;;;;;;1.90;100.00;90719.53;5015525;28;20038;-66
2021/12/30 08:59:04;;;;;;;29.48;20.10;;;;;;;1.77;100.00;90711.13;5024746;28;20026;-67
2021/12/30 09:01:30;;;;;;;36.60;25.45;;;;;;;1.79;100.00;90716.13;5028774;28;20045;-66
2021/12/30 09:03:55;;;;;;;42.70;29.42;;;;;;;1.86;100.00;90724.50;5013673;28;20034;-68
2021/12/30 09:06:21;;;;;;;48.53;33.63;;;;;;;1.89;100.00;90729.22;5013800;28;20523;-66
2021/12/30 09:08:47;;;;;;;54.15;35.53;;;;;;;2.01;100.00;90727.13;5013473;28;20037;-66
2021/12/30 09:11:13;;;;;;;46.20;32.70;;;;;;;1.95;100.00;90722.94;5013305;28;20026;-67
2021/12/30 09:13:39;;;;;;;47.70;31.15;;;;;;;2.05;100.00;90733.47;5013115;28;20049;-66
2021/12/30 09:16:04;;;;;;;38.40;27.30;;;;;;;2.15;100.00;90737.13;5013300;28;20443;-67
2021/12/30 09:18:30;;;;;;;42.78;24.63;;;;;;;2.15;100.00;90740.53;5013132;28;20030;-67
2021/12/30 09:20:56;;;;;;;48.00;25.42;;;;;;;2.16;100.00;90744.72;5013139;28;20034;-67
2021/12/30 09:23:22;;;;;;;42.65;26.48;;;;;;;2.13;100.00;90739.22;5013054;28;20037;-67
2021/12/30 09:25:48;;;;;;;49.83;28.67;;;;;;;2.22;100.00;90756.03;5013010;28;20029;-68
2021/12/30 09:28:14;;;;;;;35.80;22.63;;;;;;;2.39;100.00;90759.97;5013022;28;20098;-69
2021/12/30 09:30:45;;;;;;;33.45;21.40;;;;;;;2.44;100.00;90755.75;5023733;28;20120;-68
2021/12/30 09:33:15;;;;;;;23.23;15.27;;;;;;;2.46;100.00;90767.56;5013361;28;20116;-68
2021/12/30 09:35:47;;;;;;;27.48;18.40;;;;;;;2.44;100.00;90763.63;5013105;28;20095;-67
2021/12/30 09:38:13;;;;;;;27.15;17.02;;;;;;;2.28;100.00;90739.22;5013128;28;20033;-69
2021/12/30 09:40:38;;;;;;;21.52;13.93;;;;;;;2.52;100.00;90757.84;5013053;28;20034;-67
2021/12/30 09:43:04;;;;;;;22.58;15.10;;;;;;;2.49;100.00;90753.91;5012972;28;20507;-66
2021/12/30 09:45:36;;;;;;;25.83;15.43;;;;;;;2.49;100.00;90768.88;5012327;28;20026;-67
2021/12/30 09:48:05;;;;;;;83.13;38.15;;;;;;;2.51;100.00;90761.50;5012689;28;20061;-67
2021/12/30 09:50:43;;;;;;;52.47;31.08;;;;;;;2.52;100.00;90763.09;5011179;28;20475;-70
2021/12/30 09:53:10;;;;;;;234.95;134.07;;;;;;;2.68;100.00;90762.84;5012126;28;20042;-71
2021/12/30 09:55:36;;;;;;;66.65;40.88;;;;;;;3.06;100.00;90778.25;5012538;28;20029;-70
2021/12/30 09:58:03;;;;;;;52.15;32.92;;;;;;;2.97;100.00;90773.53;5011950;28;20045;-70
2021/12/30 10:00:29;;;;;;;43.83;24.95;;;;;;;2.90;100.00;90777.50;5012102;28;20117;-69
2021/12/30 10:02:55;;;;;;;49.97;31.42;;;;;;;2.68;100.00;90773.34;5012167;28;20040;-69
2021/12/30 10:05:26;;;;;;;42.90;26.13;;;;;;;2.47;100.00;90774.38;5011904;28;20112;-70
2021/12/30 10:08:23;;;;;;;32.03;20.75;;;;;;;2.33;100.00;90783.84;5012143;28;20044;-70
2021/12/30 10:10:52;;;;;;;29.77;19.13;;;;;;;2.12;100.00;90766.50;5009115;28;20042;-70
2021/12/30 10:13:29;;;;;;;22.90;14.02;;;;;;;2.12;100.00;90777.00;5010516;28;20049;-69
2021/12/30 10:16:09;;;;;;;27.98;18.52;;;;;;;2.33;100.00;90771.50;5011904;28;20040;-70
2021/12/30 10:18:45;;;;;;;19.20;13.38;;;;;;;2.40;100.00;90782.53;5012441;28;20033;-70
2021/12/30 10:21:13;;;;;;;9.45;6.82;;;;;;;2.34;100.00;90785.41;5010203;28;20507;-72
2021/12/30 10:23:44;;;;;;;24.17;11.73;;;;;;;2.39;100.00;90780.19;5012182;28;20034;-72
2021/12/30 10:26:10;;;;;;;9.77;6.47;;;;;;;2.09;100.00;90781.72;5012544;28;20030;-72
2021/12/30 10:28:39;;;;;;;20.65;11.75;;;;;;;2.07;100.00;90783.84;5012193;28;20056;-71
2021/12/30 10:31:11;;;;;;;104.90;60.63;;;;;;;2.02;100.00;90786.44;5011927;28;20056;-70
2021/12/30 10:33:47;;;;;;;49.25;30.88;;;;;;;2.24;100.00;90783.59;5026997;28;20033;-69
2021/12/30 10:36:19;;;;;;;15.40;10.75;;;;;;;2.24;100.00;90788.03;5030719;28;20383;-69
2021/12/30 10:38:45;;;;;;;28.17;19.25;;;;;;;2.18;100.00;90783.81;5031444;28;20040;-70
2021/12/30 10:41:10;;;;;;;28.30;18.60;;;;;;;2.24;100.00;90798.53;5031380;28;20029;-70
2021/12/30 10:46:15;;;;;;;19.10;11.05;;;;;;;2.09;100.00;90805.34;5015735;28;20033;-70
2021/12/30 10:49:04;;;;;;;12.20;9.02;;;;;;;2.00;100.00;90799.03;5011553;28;20041;-69
2021/12/30 10:51:37;;;;;;;16.25;9.35;;;;;;;2.12;100.00;90806.66;5019193;28;20367;-69
2021/12/30 10:54:16;;;;;;;124.35;69.65;;;;;;;2.31;100.00;90799.84;5031394;28;20034;-71
2021/12/30 10:57:05;;;;;;;80.57;43.92;;;;;;;2.67;100.00;90810.34;5030823;28;20034;-70
2021/12/30 10:59:35;;;;;;;43.75;27.33;;;;;;;2.41;100.00;90806.94;5030490;28;20108;-71
2021/12/30 11:02:02;;;;;;;22.55;14.65;;;;;;;2.28;100.00;90810.88;5030970;28;20033;-69
2021/12/30 11:04:35;;;;;;;26.58;16.55;;;;;;;2.14;100.00;90804.56;5045205;28;20041;-69
2021/12/30 11:07:00;;;;;;;21.10;14.57;;;;;;;2.00;100.00;90814.75;5031143;28;20483;-69
2021/12/30 11:09:26;;;;;;;23.38;14.70;;;;;;;2.00;100.00;90820.00;5030451;28;20109;-69
2021/12/30 11:11:55;;;;;;;14.68;8.70;;;;;;;2.04;100.00;90820.28;5030767;28;20099;-70
2021/12/30 11:14:24;;;;;;;12.02;5.90;;;;;;;1.95;100.00;90830.50;5031264;28;20403;-69
2021/12/30 11:17:07;;;;;;;8.32;5.78;;;;;;;2.01;100.00;90816.34;5031038;28;20033;-69
2021/12/30 11:19:39;;;;;;;17.52;11.50;;;;;;;2.23;100.00;90834.50;5031211;28;20021;-69
2021/12/30 11:22:09;;;;;;;8.93;6.28;;;;;;;2.30;100.00;90821.09;5030931;28;20063;-69
2021/12/30 11:24:35;;;;;;;5.78;4.15;;;;;;;2.43;100.00;90817.97;5030902;28;20025;-70
2021/12/30 11:27:03;;;;;;;17.75;9.10;;;;;;;2.39;100.00;90811.69;5030842;28;20086;-70